Time;durP1;ratioP1;P1;durP2;ratioP2;P2;SDS_P1;SDS_P2;PMS_P1;PMS_P2;Temp;Humidity;BMP_temperature;BMP_pressure;BME280_temperature;BME280_humidity;BME280_pressure;Samples;Min_cycle;Max_cycle;Signal;HPM_P1;HPM_P2
2022/11/02 00:00:34;;;;;;;17.45;1.83;;;17.20;71.90;;;;;;7389379;19;20062;-78
2022/11/02 00:03:02;;;;;;;10.07;2.10;;;17.20;71.90;;;;;;7390958;19;20032;-78
2022/11/02 00:05:31;;;;;;;10.00;2.03;;;17.20;71.80;;;;;;7389353;19;20029;-78
2022/11/02 00:08:00;;;;;;;14.20;2.13;;;17.20;71.80;;;;;;7396922;19;20266;-78
2022/11/02 00:10:29;;;;;;;12.55;2.50;;;17.20;71.70;;;;;;7390420;19;20015;-79
2022/11/02 00:12:58;;;;;;;15.77;2.22;;;17.20;71.70;;;;;;7387556;19;20031;-78
2022/11/02 00:15:31;;;;;;;11.18;2.20;;;17.10;71.60;;;;;;7389705;19;20442;-78
2022/11/02 00:18:07;;;;;;;12.90;1.83;;;17.00;71.40;;;;;;7393484;19;20014;-78
2022/11/02 00:20:38;;;;;;;13.07;2.22;;;17.00;71.30;;;;;;7394679;19;20039;-77
2022/11/02 00:23:09;;;;;;;13.15;2.25;;;17.00;71.10;;;;;;7397403;19;20036;-78
2022/11/02 00:25:40;;;;;;;15.13;2.28;;;17.00;71.00;;;;;;7396939;19;20094;-77
2022/11/02 00:28:09;;;;;;;12.30;1.92;;;17.00;70.60;;;;;;7395450;19;20074;-77
2022/11/02 00:30:39;;;;;;;9.82;1.83;;;17.00;70.50;;;;;;7399953;19;20048;-77
2022/11/02 00:33:11;;;;;;;15.30;1.90;;;17.00;70.40;;;;;;7396851;19;20102;-78
2022/11/02 00:35:39;;;;;;;;;;;16.90;70.00;;;;;;7396695;19;20072;-77
2022/11/02 00:38:08;;;;;;;8.20;1.45;;;16.90;70.40;;;;;;7393685;19;20002;-77
2022/11/02 00:40:37;;;;;;;9.82;1.60;;;16.90;70.20;;;;;;7398225;19;20018;-77
2022/11/02 00:43:06;;;;;;;12.82;2.03;;;16.90;70.30;;;;;;7396755;19;20015;-77
2022/11/02 00:45:35;;;;;;;11.63;2.10;;;16.80;71.20;;;;;;7396155;19;20450;-77
2022/11/02 00:48:03;;;;;;;17.55;2.83;;;16.60;70.70;;;;;;7397409;19;20090;-78
2022/11/02 00:50:35;;;;;;;17.92;2.20;;;16.60;71.30;;;;;;7396742;19;20010;-78
2022/11/02 00:53:03;;;;;;;;;;;16.60;71.40;;;;;;7396287;19;20082;-78
2022/11/02 00:55:32;;;;;;;13.85;2.10;;;16.70;71.40;;;;;;7395059;19;19987;-79
2022/11/02 00:58:01;;;;;;;15.80;2.47;;;16.60;71.10;;;;;;7396666;19;20310;-78
2022/11/02 01:00:29;;;;;;;16.90;2.60;;;16.70;71.20;;;;;;7394589;19;20358;-79
2022/11/02 01:03:01;;;;;;;15.65;2.17;;;16.70;71.20;;;;;;7397898;19;20327;-78
2022/11/02 01:05:30;;;;;;;11.07;2.33;;;16.70;71.20;;;;;;7395137;19;20022;-77
2022/11/02 01:08:02;;;;;;;18.80;2.97;;;16.60;71.20;;;;;;7393398;19;20026;-77
2022/11/02 01:10:30;;;;;;;17.75;2.67;;;16.60;71.40;;;;;;7395836;19;20106;-77
2022/11/02 01:12:59;;;;;;;16.20;2.70;;;16.70;71.40;;;;;;7393888;19;20347;-77
2022/11/02 01:15:28;;;;;;;11.23;2.65;;;16.60;71.30;;;;;;7395014;19;20028;-77
2022/11/02 01:17:57;;;;;;;17.80;2.00;;;16.60;71.40;;;;;;7394164;19;20053;-77
2022/11/02 01:20:26;;;;;;;13.98;2.17;;;16.40;71.90;;;;;;7395759;19;20041;-76
2022/11/02 01:22:55;;;;;;;13.73;2.15;;;16.30;72.40;;;;;;7395453;19;20029;-78
2022/11/02 01:25:26;;;;;;;11.18;2.00;;;16.30;72.40;;;;;;7394956;19;20026;-79
2022/11/02 01:27:54;;;;;;;;;;;16.30;72.70;;;;;;7395856;19;20039;-77
2022/11/02 01:30:23;;;;;;;13.05;2.22;;;16.40;72.80;;;;;;7393478;19;19993;-77
2022/11/02 01:32:52;;;;;;;11.55;2.35;;;16.30;72.40;;;;;;7395703;19;20336;-77
2022/11/02 01:35:20;;;;;;;17.38;2.63;;;16.40;72.50;;;;;;7394249;19;20346;-77
2022/11/02 01:37:49;;;;;;;20.60;2.33;;;16.40;72.50;;;;;;7393152;19;20731;-77
2022/11/02 01:40:18;;;;;;;19.77;2.83;;;16.40;72.40;;;;;;7391382;19;20081;-77
2022/11/02 01:42:49;;;;;;;18.25;2.30;;;16.40;72.50;;;;;;7392871;19;20026;-77
2022/11/02 01:45:18;;;;;;;31.45;3.42;;;16.30;72.60;;;;;;7393259;19;20014;-77
2022/11/02 01:47:50;;;;;;;11.68;2.13;;;16.30;72.80;;;;;;7394857;19;20029;-77
2022/11/02 01:50:23;;;;;;;21.13;3.13;;;16.30;72.80;;;;;;7396324;19;20082;-77
2022/11/02 01:52:51;;;;;;;19.90;2.20;;;16.30;72.50;;;;;;7395099;19;20022;-77
2022/11/02 01:55:23;;;;;;;23.20;2.63;;;16.20;72.60;;;;;;7393916;19;20715;-77
2022/11/02 01:57:59;;;;;;;20.92;2.53;;;16.20;72.70;;;;;;7394210;19;20046;-77
2022/11/02 02:00:27;;;;;;;21.42;3.30;;;16.20;72.70;;;;;;7392947;19;20089;-77
2022/11/02 02:03:05;;;;;;;20.35;2.97;;;16.30;72.70;;;;;;7394201;19;20094;-77
2022/11/02 02:05:35;;;;;;;22.67;2.40;;;16.20;72.50;;;;;;7391755;19;20090;-77
2022/11/02 02:08:06;;;;;;;26.77;2.53;;;16.20;72.50;;;;;;7393007;19;20026;-77
2022/11/02 02:10:36;;;;;;;23.73;2.78;;;16.20;72.60;;;;;;7393175;19;20022;-77
2022/11/02 02:13:08;;;;;;;22.58;3.15;;;16.20;72.60;;;;;;7394521;19;20105;-78
2022/11/02 02:15:43;;;;;;;11.30;2.03;;;16.20;72.50;;;;;;7392520;19;20024;-78
2022/11/02 02:18:21;;;;;;;21.67;3.10;;;16.10;72.30;;;;;;7394470;19;20321;-78
2022/11/02 02:21:06;;;;;;;23.67;2.70;;;16.20;72.40;;;;;;7395483;19;20019;-77
2022/11/02 02:24:00;;;;;;;25.48;3.20;;;16.20;72.30;;;;;;7394192;19;20014;-77
2022/11/02 02:26:58;;;;;;;30.60;3.00;;;16.20;72.10;;;;;;7394840;19;20030;-78
2022/11/02 02:29:38;;;;;;;20.92;2.97;;;16.10;71.80;;;;;;7393762;19;20022;-78
2022/11/02 02:32:14;;;;;;;29.30;3.27;;;16.10;71.90;;;;;;7392725;19;20101;-78
2022/11/02 02:34:51;;;;;;;26.33;2.60;;;16.00;71.90;;;;;;7395305;19;20291;-78
2022/11/02 02:37:23;;;;;;;18.55;2.70;;;15.90;72.00;;;;;;7394546;19;20015;-77
2022/11/02 02:39:58;;;;;;;30.98;3.45;;;16.00;72.00;;;;;;7394473;19;20021;-77
2022/11/02 02:42:33;;;;;;;24.30;2.80;;;15.90;72.00;;;;;;7392654;19;20018;-77
2022/11/02 02:45:14;;;;;;;28.00;3.10;;;15.90;72.00;;;;;;7391702;19;20138;-78
2022/11/02 02:47:48;;;;;;;22.45;2.95;;;15.90;72.10;;;;;;7391267;19;20010;-78
2022/11/02 02:50:22;;;;;;;21.75;2.22;;;15.90;72.20;;;;;;7390371;19;20045;-77
2022/11/02 02:52:53;;;;;;;21.42;2.85;;;15.90;72.40;;;;;;7391093;19;20085;-77
2022/11/02 02:55:26;;;;;;;20.45;2.75;;;15.90;72.20;;;;;;7391806;19;20033;-77
2022/11/02 02:57:57;;;;;;;25.15;2.95;;;16.00;72.10;;;;;;7392954;19;20026;-78
2022/11/02 03:00:29;;;;;;;25.20;2.97;;;16.00;71.90;;;;;;7390752;19;20038;-77
2022/11/02 03:03:02;;;;;;;24.77;3.42;;;16.00;72.70;;;;;;7389908;19;20023;-77
2022/11/02 03:05:34;;;;;;;29.08;4.32;;;16.10;71.80;;;;;;7391463;19;20024;-77
2022/11/02 03:08:07;;;;;;;20.80;3.38;;;16.10;71.60;;;;;;7392534;19;20022;-77
2022/11/02 03:10:43;;;;;;;24.00;3.25;;;16.10;71.60;;;;;;7393581;19;20038;-77
2022/11/02 03:13:30;;;;;;;17.42;3.00;;;16.10;71.60;;;;;;7388254;19;20497;-77
2022/11/02 03:16:08;;;;;;;28.38;3.70;;;16.10;71.50;;;;;;7387589;19;20094;-77
2022/11/02 03:18:42;;;;;;;16.35;2.88;;;16.10;71.30;;;;;;7390886;19;20102;-79
2022/11/02 03:21:21;;;;;;;23.90;4.05;;;16.10;71.30;;;;;;7392325;19;20051;-78
2022/11/02 03:23:56;;;;;;;27.27;3.90;;;16.10;71.50;;;;;;7388729;19;20025;-79
2022/11/02 03:26:31;;;;;;;25.58;3.65;;;16.10;71.50;;;;;;7390728;19;20090;-78
2022/11/02 03:29:06;;;;;;;27.85;3.95;;;16.10;71.50;;;;;;7390054;19;20089;-79
2022/11/02 03:31:43;;;;;;;26.02;3.72;;;16.10;71.40;;;;;;7391950;19;20117;-77
2022/11/02 03:34:21;;;;;;;34.92;3.75;;;16.10;71.20;;;;;;7390461;19;20022;-78
2022/11/02 03:36:53;;;;;;;29.25;3.33;;;16.00;71.00;;;;;;7389161;19;20022;-78
2022/11/02 03:39:30;;;;;;;24.00;3.63;;;16.00;70.80;;;;;;7392342;19;20751;-79
2022/11/02 03:42:02;;;;;;;20.77;2.92;;;15.90;70.70;;;;;;7395327;19;20014;-84
2022/11/02 03:44:35;;;;;;;23.38;4.28;;;15.90;70.70;;;;;;7391537;19;20023;-79
2022/11/02 03:47:10;;;;;;;23.55;3.38;;;15.80;71.10;;;;;;7389186;19;20026;-79
2022/11/02 03:49:41;;;;;;;23.15;3.00;;;15.80;71.20;;;;;;7392996;19;20022;-78
2022/11/02 03:52:17;;;;;;;18.52;3.33;;;15.80;71.10;;;;;;7389429;19;20114;-79
2022/11/02 03:54:53;;;;;;;25.73;3.35;;;15.80;70.90;;;;;;7389971;19;20783;-79
2022/11/02 03:57:28;;;;;;;23.40;3.17;;;15.70;71.00;;;;;;7388999;19;20106;-78
2022/11/02 04:00:08;;;;;;;24.20;3.08;;;15.70;70.80;;;;;;7392335;19;20029;-78
2022/11/02 04:02:43;;;;;;;20.60;3.47;;;15.70;70.80;;;;;;7394273;19;20029;-79
2022/11/02 04:05:12;;;;;;;23.55;3.25;;;15.60;70.70;;;;;;7396454;19;20040;-78
2022/11/02 04:10:25;;;;;;;20.48;2.72;;;15.60;71.00;;;;;;7398458;19;20018;-79
2022/11/02 04:15:35;;;;;;;29.05;3.47;;;15.60;70.70;;;;;;7397598;19;20060;-77
2022/11/02 04:20:51;;;;;;;22.00;2.78;;;15.60;70.40;;;;;;7397573;19;20019;-77
2022/11/02 04:26:01;;;;;;;21.17;2.97;;;15.50;70.90;;;;;;7397755;19;20589;-77
2022/11/02 04:28:30;;;;;;;28.85;3.25;;;15.50;70.80;;;;;;7392129;19;20028;-77
2022/11/02 04:31:01;;;;;;;33.83;4.00;;;15.50;70.80;;;;;;7394067;19;20023;-77
2022/11/02 04:33:32;;;;;;;36.20;4.33;;;15.40;71.40;;;;;;7398448;19;20034;-77
2022/11/02 04:36:02;;;;;;;36.60;4.63;;;15.40;71.90;;;;;;7395497;19;20014;-77
2022/11/02 04:38:40;;;;;;;23.70;3.70;;;15.40;71.90;;;;;;7395562;19;20025;-78
2022/11/02 04:43:51;;;;;;;22.25;3.20;;;15.40;71.30;;;;;;7396318;19;20018;-77
2022/11/02 04:46:20;;;;;;;33.00;3.97;;;15.40;71.30;;;;;;7392050;19;20462;-77
2022/11/02 04:48:51;;;;;;;21.65;3.53;;;15.40;71.50;;;;;;7392524;19;20077;-77
2022/11/02 04:51:21;;;;;;;14.20;3.53;;;15.40;71.20;;;;;;7393266;19;20025;-77
2022/11/02 04:53:50;;;;;;;27.27;3.42;;;15.40;70.70;;;;;;7398367;19;20757;-80
2022/11/02 04:56:19;;;;;;;24.73;3.53;;;15.40;71.10;;;;;;7395738;19;20070;-78
2022/11/02 04:58:51;;;;;;;39.40;4.22;;;15.30;71.40;;;;;;7397812;19;20029;-77
2022/11/02 05:01:21;;;;;;;26.27;3.67;;;15.40;71.60;;;;;;7392272;19;20426;-77
2022/11/02 05:03:54;;;;;;;23.10;2.92;;;15.40;72.60;;;;;;7395986;19;20025;-77
2022/11/02 05:06:24;;;;;;;29.08;3.22;;;15.30;71.40;;;;;;7391292;19;20030;-77
2022/11/02 05:08:53;;;;;;;24.77;3.30;;;15.40;71.00;;;;;;7397801;19;20443;-77
2022/11/02 05:11:21;;;;;;;27.67;3.38;;;15.30;71.40;;;;;;7395221;19;20402;-77
2022/11/02 05:13:50;;;;;;;19.70;2.92;;;15.30;71.20;;;;;;7396327;19;20033;-77
2022/11/02 05:16:19;;;;;;;26.05;3.40;;;15.30;71.20;;;;;;7393622;19;20035;-77
2022/11/02 05:18:48;;;;;;;28.38;3.35;;;15.30;71.00;;;;;;7396181;19;20202;-77
2022/11/02 05:21:19;;;;;;;23.73;3.33;;;15.30;70.70;;;;;;7393761;19;20344;-77
2022/11/02 05:23:47;;;;;;;21.00;3.42;;;15.20;70.50;;;;;;7393548;19;20348;-77
2022/11/02 05:26:16;;;;;;;31.05;4.00;;;15.20;70.40;;;;;;7392594;19;20023;-80
2022/11/02 05:28:45;;;;;;;24.45;3.05;;;15.20;70.30;;;;;;7393391;19;20393;-78
2022/11/02 05:31:14;;;;;;;17.00;3.25;;;15.20;70.40;;;;;;7393482;19;20021;-78
2022/11/02 05:33:42;;;;;;;27.50;4.22;;;15.20;70.30;;;;;;7396690;19;20081;-78
2022/11/02 05:36:12;;;;;;;24.58;4.35;;;15.20;70.20;;;;;;7369922;19;20018;-77
2022/11/02 05:38:43;;;;;;;30.55;3.63;;;15.20;70.30;;;;;;7371516;19;20053;-78
2022/11/02 05:41:12;;;;;;;24.50;3.45;;;15.10;70.10;;;;;;7370621;19;20488;-77
2022/11/02 05:43:40;;;;;;;25.55;3.28;;;15.10;70.20;;;;;;7393407;19;20633;-77
2022/11/02 05:46:09;;;;;;;22.10;3.40;;;15.00;70.20;;;;;;7368890;19;20019;-78
2022/11/02 05:48:38;;;;;;;32.83;3.45;;;15.00;70.40;;;;;;7369014;19;20498;-78
2022/11/02 05:51:07;;;;;;;29.27;3.17;;;15.00;70.40;;;;;;7372245;19;20109;-78
2022/11/02 05:53:37;;;;;;;31.33;3.97;;;15.00;70.20;;;;;;7371697;19;20098;-78
2022/11/02 05:56:13;;;;;;;28.75;4.28;;;15.00;70.10;;;;;;7365744;19;20445;-77
2022/11/02 05:58:42;;;;;;;26.38;4.07;;;15.00;70.20;;;;;;7392722;19;20026;-79
2022/11/02 06:01:12;;;;;;;35.85;4.53;;;14.90;70.40;;;;;;7367869;19;20022;-79
2022/11/02 06:03:41;;;;;;;33.00;4.50;;;14.90;70.30;;;;;;7371211;19;20077;-77
2022/11/02 06:06:12;;;;;;;31.15;4.65;;;14.90;70.50;;;;;;7370230;19;20632;-77
2022/11/02 06:08:41;;;;;;;;;;;14.90;70.40;;;;;;7371703;19;20436;-77
2022/11/02 06:11:14;;;;;;;29.02;3.58;;;14.90;70.30;;;;;;7370867;19;19922;-77
2022/11/02 06:13:43;;;;;;;37.85;3.75;;;14.90;70.20;;;;;;7395346;19;20366;-78
2022/11/02 06:16:14;;;;;;;28.38;3.55;;;14.90;70.20;;;;;;7370564;19;20018;-77
2022/11/02 06:18:43;;;;;;;30.30;4.10;;;14.80;70.00;;;;;;7372533;19;20085;-77
2022/11/02 06:21:13;;;;;;;28.10;4.30;;;14.80;70.00;;;;;;7386649;19;20014;-78
2022/11/02 06:23:42;;;;;;;30.33;3.75;;;14.80;69.90;;;;;;7391386;19;20046;-79
2022/11/02 06:26:14;;;;;;;29.90;4.63;;;14.80;69.90;;;;;;7374569;19;20114;-78
2022/11/02 06:28:43;;;;;;;35.22;3.88;;;14.70;69.90;;;;;;7392382;19;20014;-79
2022/11/02 06:31:12;;;;;;;32.22;3.83;;;14.70;70.30;;;;;;7380746;19;20014;-78
2022/11/02 06:33:41;;;;;;;24.30;3.53;;;14.70;70.20;;;;;;7387256;19;20018;-84
2022/11/02 06:36:11;;;;;;;25.63;4.43;;;14.70;70.50;;;;;;7372417;19;20018;-80
2022/11/02 06:38:40;;;;;;;22.52;3.13;;;14.60;70.50;;;;;;7373261;19;20014;-79
2022/11/02 06:41:09;;;;;;;30.73;3.80;;;14.60;70.50;;;;;;7373231;19;20615;-79
2022/11/02 06:43:41;;;;;;;25.02;4.28;;;14.60;70.50;;;;;;7400079;19;20022;-88
2022/11/02 06:46:09;;;;;;;;;;;14.60;70.60;;;;;;7378561;19;20018;-90
2022/11/02 06:48:38;;;;;;;27.25;4.10;;;14.60;70.60;;;;;;7384919;19;19923;-87
2022/11/02 06:51:10;;;;;;;27.60;4.35;;;14.50;70.20;;;;;;7390861;19;20429;-88
2022/11/02 06:53:39;;;;;;;33.42;3.92;;;14.60;70.30;;;;;;7383298;19;20010;-88
2022/11/02 06:56:08;;;;;;;24.08;3.72;;;14.50;70.40;;;;;;7382135;19;20026;-89
2022/11/02 06:58:40;;;;;;;24.02;3.95;;;14.50;70.50;;;;;;7394244;19;20031;-85
2022/11/02 07:01:09;;;;;;;;;;;14.50;70.70;;;;;;7373183;19;20961;-86
2022/11/02 07:03:39;;;;;;;24.58;4.60;;;14.60;70.60;;;;;;7374575;19;19915;-87
2022/11/02 07:06:08;;;;;;;25.55;3.63;;;14.50;70.30;;;;;;7374892;19;20348;-87
2022/11/02 07:08:38;;;;;;;34.80;4.60;;;14.50;70.40;;;;;;7374443;19;20018;-86
2022/11/02 07:11:07;;;;;;;22.98;3.58;;;14.50;70.60;;;;;;7370515;19;20027;-86
2022/11/02 07:13:36;;;;;;;28.55;3.92;;;14.50;70.70;;;;;;7396738;19;20031;-86
2022/11/02 07:16:07;;;;;;;27.33;3.42;;;14.50;70.80;;;;;;7374734;19;20015;-86
2022/11/02 07:18:36;;;;;;;26.02;3.92;;;14.50;70.50;;;;;;7377586;19;20441;-87
2022/11/02 07:21:05;;;;;;;27.10;3.80;;;14.50;70.30;;;;;;7374254;19;20100;-86
2022/11/02 07:23:34;;;;;;;26.52;4.50;;;14.60;70.20;;;;;;7375377;19;20025;-86
2022/11/02 07:26:03;;;;;;;31.83;5.47;;;14.60;70.10;;;;;;7372857;19;20126;-86
2022/11/02 07:28:32;;;;;;;17.10;4.00;;;14.60;70.30;;;;;;7396845;19;20028;-86
2022/11/02 07:31:01;;;;;;;26.13;4.25;;;14.60;70.30;;;;;;7377730;19;20129;-86
2022/11/02 07:33:32;;;;;;;18.95;4.35;;;14.60;70.40;;;;;;7375815;19;20027;-87
2022/11/02 07:36:04;;;;;;;23.00;4.20;;;14.70;70.50;;;;;;7377019;19;20022;-87
2022/11/02 07:38:32;;;;;;;;;;;14.70;70.40;;;;;;7384447;19;20031;-87
2022/11/02 07:41:01;;;;;;;19.55;3.83;;;14.80;70.50;;;;;;7387148;19;19939;-85
2022/11/02 07:43:35;;;;;;;26.52;4.05;;;14.80;70.40;;;;;;7411988;19;20438;-87
2022/11/02 07:46:05;;;;;;;30.25;4.78;;;14.80;70.60;;;;;;7390163;19;20018;-87
2022/11/02 07:48:37;;;;;;;32.80;3.88;;;14.80;72.10;;;;;;7384961;19;20062;-87
2022/11/02 07:51:06;;;;;;;34.80;4.82;;;14.90;72.40;;;;;;7387964;19;20483;-87
2022/11/02 07:53:35;;;;;;;36.72;4.80;;;15.00;72.70;;;;;;7392460;19;20054;-87
2022/11/02 07:56:04;;;;;;;40.03;5.18;;;15.00;73.40;;;;;;7401751;19;20022;-85
2022/11/02 07:58:33;;;;;;;33.97;5.43;;;15.00;73.90;;;;;;7421809;19;20029;-87
2022/11/02 08:01:03;;;;;;;38.20;4.65;;;15.00;74.70;;;;;;7400503;19;20031;-87
2022/11/02 08:03:31;;;;;;;39.33;4.57;;;14.90;75.30;;;;;;7396000;19;20015;-87
2022/11/02 08:06:06;;;;;;;34.88;4.47;;;14.90;75.50;;;;;;7395538;19;20023;-87
2022/11/02 08:08:34;;;;;;;40.58;4.85;;;15.00;75.50;;;;;;7386331;19;20017;-87
2022/11/02 08:11:08;;;;;;;26.85;4.55;;;15.10;75.50;;;;;;7385900;19;20893;-87
2022/11/02 08:13:38;;;;;;;34.42;4.50;;;15.10;75.50;;;;;;7405232;19;20011;-87
2022/11/02 08:16:07;;;;;;;31.05;4.90;;;15.00;75.50;;;;;;7382509;19;20037;-86
2022/11/02 08:18:36;;;;;;;42.75;5.47;;;15.00;75.80;;;;;;7379509;19;20029;-87
2022/11/02 08:21:08;;;;;;;30.63;4.32;;;15.00;75.70;;;;;;7381612;19;20066;-87
2022/11/02 08:23:36;;;;;;;;;;;15.10;75.70;;;;;;7381907;19;20054;-87
2022/11/02 08:26:05;;;;;;;31.10;4.72;;;15.30;75.50;;;;;;7380607;19;19915;-87
2022/11/02 08:28:38;;;;;;;35.72;4.55;;;15.30;75.20;;;;;;7403059;19;20422;-87
2022/11/02 08:31:08;;;;;;;27.67;4.13;;;15.40;75.00;;;;;;7382477;19;20018;-87
2022/11/02 08:33:37;;;;;;;29.05;4.75;;;15.60;74.80;;;;;;7380199;19;20040;-87
2022/11/02 08:36:09;;;;;;;32.92;5.25;;;15.60;74.50;;;;;;7381884;19;20175;-88
2022/11/02 08:38:38;;;;;;;26.60;4.10;;;15.70;74.00;;;;;;7394340;19;20027;-87
2022/11/02 08:41:07;;;;;;;27.05;4.65;;;15.60;73.70;;;;;;7392006;19;20015;-88
2022/11/02 08:43:36;;;;;;;38.90;5.10;;;15.60;73.70;;;;;;7406658;19;20031;-87
2022/11/02 08:46:05;;;;;;;24.00;3.88;;;15.60;73.80;;;;;;7380466;19;20028;-87
2022/11/02 08:48:34;;;;;;;30.70;4.47;;;15.70;73.90;;;;;;7383973;19;20433;-88
2022/11/02 08:51:04;;;;;;;30.70;4.97;;;15.70;73.90;;;;;;7384900;19;20011;-88
2022/11/02 08:53:36;;;;;;;24.38;4.68;;;15.70;73.80;;;;;;7383547;19;20011;-87
2022/11/02 08:56:05;;;;;;;27.88;4.95;;;15.40;74.20;;;;;;7387143;19;20018;-87
2022/11/02 08:58:33;;;;;;;22.42;4.20;;;15.50;74.40;;;;;;7408337;19;20086;-88
2022/11/02 09:01:02;;;;;;;27.70;4.40;;;15.60;74.20;;;;;;7383980;19;20018;-88
2022/11/02 09:03:31;;;;;;;23.50;4.43;;;15.70;73.90;;;;;;7384388;19;20011;-88
2022/11/02 09:06:01;;;;;;;27.40;4.13;;;15.70;73.90;;;;;;7384475;19;20114;-88
2022/11/02 09:08:32;;;;;;;28.13;5.30;;;15.80;74.00;;;;;;7386617;19;20018;-88
2022/11/02 09:11:05;;;;;;;29.33;4.50;;;15.80;73.90;;;;;;7386639;19;20039;-87
2022/11/02 09:13:33;;;;;;;23.45;3.78;;;15.90;74.00;;;;;;7407035;19;20027;-88
2022/11/02 09:16:03;;;;;;;24.45;4.07;;;16.00;73.80;;;;;;7386019;19;20019;-88
2022/11/02 09:18:31;;;;;;;21.67;3.97;;;16.00;73.30;;;;;;7377924;19;20019;-88
2022/11/02 09:21:03;;;;;;;29.90;5.00;;;16.10;73.10;;;;;;7382711;19;20014;-88
2022/11/02 09:23:33;;;;;;;28.75;5.05;;;16.10;73.10;;;;;;7383972;19;20085;-88
2022/11/02 09:26:04;;;;;;;24.15;4.45;;;16.00;73.10;;;;;;7395372;19;20018;-87
2022/11/02 09:28:33;;;;;;;;;;;16.10;73.50;;;;;;7413405;19;20022;-88
2022/11/02 09:31:02;;;;;;;27.70;3.95;;;16.10;73.30;;;;;;7388560;19;19931;-88
2022/11/02 09:33:31;;;;;;;22.38;3.53;;;16.00;73.10;;;;;;7386068;19;20022;-88
2022/11/02 09:36:04;;;;;;;24.90;3.60;;;15.90;73.40;;;;;;7384047;19;20039;-88
2022/11/02 09:38:33;;;;;;;24.13;4.85;;;15.70;73.60;;;;;;7381528;19;20933;-88
2022/11/02 09:41:14;;;;;;;25.98;3.97;;;15.90;73.80;;;;;;7384606;19;20133;-88
2022/11/02 09:43:51;;;;;;;22.60;3.47;;;15.70;73.80;;;;;;7403886;19;20708;-88
2022/11/02 09:46:26;;;;;;;28.50;4.40;;;15.90;73.80;;;;;;7384276;19;20332;-88
2022/11/02 09:48:57;;;;;;;20.35;2.88;;;15.90;73.40;;;;;;7388994;19;20027;-88
2022/11/02 09:51:30;;;;;;;23.98;3.67;;;16.00;72.90;;;;;;7389352;19;20007;-88
2022/11/02 09:54:10;;;;;;;16.63;3.08;;;16.00;73.10;;;;;;7389668;19;20399;-87
2022/11/02 09:56:44;;;;;;;17.60;4.00;;;16.10;72.80;;;;;;7389498;19;20051;-88
2022/11/02 09:59:16;;;;;;;23.98;3.40;;;16.20;72.50;;;;;;7387300;19;20023;-88
2022/11/02 10:02:03;;;;;;;25.15;3.65;;;16.10;72.10;;;;;;7416771;19;20454;-88
2022/11/02 10:04:52;;;;;;;20.45;3.45;;;16.00;72.20;;;;;;7392041;19;20010;-87
2022/11/02 10:07:34;;;;;;;21.55;2.70;;;16.00;72.70;;;;;;7384056;19;20421;-88
2022/11/02 10:10:07;;;;;;;26.55;3.67;;;16.00;72.70;;;;;;7380653;19;20028;-88
2022/11/02 10:12:51;;;;;;;22.58;3.28;;;16.00;72.70;;;;;;7380691;19;20030;-88
2022/11/02 10:15:24;;;;;;;21.23;3.47;;;16.00;72.50;;;;;;7382306;19;20014;-88
2022/11/02 10:17:58;;;;;;;26.42;3.40;;;16.00;72.70;;;;;;7382419;19;20082;-87
2022/11/02 10:20:29;;;;;;;21.85;3.90;;;16.10;72.40;;;;;;7381909;19;20038;-88
2022/11/02 10:23:04;;;;;;;20.73;3.50;;;16.20;72.30;;;;;;7384450;19;20014;-88
2022/11/02 10:25:33;;;;;;;18.65;3.10;;;16.20;71.80;;;;;;7405543;19;20394;-88
2022/11/02 10:28:12;;;;;;;20.55;3.30;;;16.30;71.50;;;;;;7379020;19;20528;-89
2022/11/02 10:30:41;;;;;;;20.30;3.42;;;16.30;71.30;;;;;;7381571;19;20014;-88
2022/11/02 10:33:15;;;;;;;17.77;2.50;;;16.40;71.40;;;;;;7379157;19;20019;-87
2022/11/02 10:35:58;;;;;;;23.65;3.08;;;16.50;71.40;;;;;;7376986;19;20011;-88
2022/11/02 10:38:35;;;;;;;22.20;3.10;;;16.60;71.30;;;;;;7379725;19;20022;-88
2022/11/02 10:41:29;;;;;;;18.00;3.38;;;16.50;70.80;;;;;;7379686;19;20086;-88
2022/11/02 10:44:24;;;;;;;19.17;3.08;;;16.50;71.00;;;;;;7378145;19;20055;-88
2022/11/02 10:47:05;;;;;;;22.35;3.28;;;16.50;70.40;;;;;;7411423;19;20027;-89
2022/11/02 10:50:05;;;;;;;28.65;2.80;;;16.50;70.60;;;;;;7390707;19;20016;-88
2022/11/02 10:52:38;;;;;;;20.08;3.25;;;16.50;70.40;;;;;;7383003;19;20011;-90
2022/11/02 10:55:12;;;;;;;19.73;2.95;;;16.30;70.40;;;;;;7385360;19;20014;-89
2022/11/02 10:57:41;;;;;;;29.33;3.78;;;16.20;70.90;;;;;;7383105;19;20102;-89
2022/11/02 11:00:40;;;;;;;21.95;3.33;;;16.30;70.90;;;;;;7387534;19;20035;-89
2022/11/02 11:03:11;;;;;;;29.20;3.60;;;16.30;71.00;;;;;;7386794;19;20015;-89
2022/11/02 11:05:56;;;;;;;15.70;3.22;;;16.30;71.20;;;;;;7396540;19;20011;-89
2022/11/02 11:08:39;;;;;;;18.00;3.15;;;16.40;70.90;;;;;;7390157;19;20011;-89
2022/11/02 11:11:13;;;;;;;21.08;3.80;;;16.50;70.70;;;;;;7383622;19;20011;-89
2022/11/02 11:13:43;;;;;;;26.88;3.55;;;16.70;70.50;;;;;;7412177;19;20324;-89
2022/11/02 11:16:15;;;;;;;24.02;3.20;;;16.70;70.10;;;;;;7389510;19;20015;-89
2022/11/02 11:18:44;;;;;;;25.30;3.58;;;16.70;69.90;;;;;;7398008;19;20006;-89
2022/11/02 11:21:12;;;;;;;17.70;2.47;;;16.70;69.90;;;;;;7393414;19;20374;-89
2022/11/02 11:23:41;;;;;;;31.05;3.97;;;16.70;70.10;;;;;;7393877;19;20071;-89
2022/11/02 11:26:29;;;;;;;25.77;3.85;;;16.70;69.80;;;;;;7409195;19;20021;-89
2022/11/02 11:28:58;;;;;;;34.25;3.63;;;16.70;69.80;;;;;;7403376;19;20308;-89
2022/11/02 11:31:30;;;;;;;24.70;4.18;;;16.80;69.90;;;;;;7410316;19;20035;-89
2022/11/02 11:34:00;;;;;;;;;;;16.70;69.60;;;;;;7383109;19;20086;-89
2022/11/02 11:36:32;;;;;;;20.70;3.50;;;17.00;69.70;;;;;;7385702;19;19929;-89
2022/11/02 11:39:01;;;;;;;;;;;16.90;68.60;;;;;;7386992;19;20011;-88
2022/11/02 11:41:31;;;;;;;25.88;4.25;;;17.10;68.90;;;;;;7387985;19;19911;-89
2022/11/02 11:44:00;;;;;;;27.52;3.70;;;17.10;68.40;;;;;;7383914;19;20035;-89
2022/11/02 11:46:45;;;;;;;25.30;3.33;;;17.20;68.80;;;;;;7408340;19;20077;-90
2022/11/02 11:49:24;;;;;;;44.83;7.88;;;17.20;68.30;;;;;;7385079;19;20034;-89
2022/11/02 11:51:55;;;;;;;38.17;6.70;;;17.10;68.50;;;;;;7384974;19;20066;-90
2022/11/02 11:54:27;;;;;;;21.27;4.20;;;17.00;68.50;;;;;;7383793;19;20011;-89
2022/11/02 11:56:57;;;;;;;33.00;3.97;;;16.90;69.30;;;;;;7386615;19;20018;-89
2022/11/02 11:59:46;;;;;;;42.42;4.05;;;16.80;69.50;;;;;;7384760;19;20022;-90
2022/11/02 12:02:25;;;;;;;25.80;3.90;;;16.70;70.40;;;;;;7389474;19;20004;-90
2022/11/02 12:05:01;;;;;;;29.15;3.42;;;16.80;70.10;;;;;;7410720;19;20010;-90
2022/11/02 12:08:02;;;;;;;31.42;4.15;;;16.90;70.10;;;;;;7390749;19;20028;-90
2022/11/02 12:10:56;;;;;;;28.42;3.85;;;17.00;70.10;;;;;;7407298;19;20017;-90
2022/11/02 12:13:52;;;;;;;35.72;4.00;;;17.10;69.70;;;;;;7401176;19;20014;-91
2022/11/02 12:16:29;;;;;;;28.77;4.70;;;17.10;68.80;;;;;;7391983;19;20062;-90
2022/11/02 12:19:21;;;;;;;40.33;4.53;;;17.00;69.20;;;;;;7392616;19;20018;-90
2022/11/02 12:22:03;;;;;;;28.85;3.85;;;17.10;69.20;;;;;;7384453;19;20050;-89
2022/11/02 12:24:45;;;;;;;28.73;4.00;;;17.30;69.20;;;;;;7385462;19;20011;-89
2022/11/02 12:27:28;;;;;;;28.85;4.30;;;17.40;68.60;;;;;;7386270;19;20028;-88
2022/11/02 12:30:10;;;;;;;25.20;3.63;;;17.50;67.10;;;;;;7387975;19;20038;-89
2022/11/02 12:33:09;;;;;;;29.00;3.70;;;17.60;65.90;;;;;;7387367;19;20019;-89
2022/11/02 12:35:58;;;;;;;22.45;3.67;;;17.80;66.60;;;;;;7393640;19;20039;-89
2022/11/02 12:38:54;;;;;;;37.60;3.90;;;18.00;65.90;;;;;;7394458;19;20410;-89
2022/11/02 12:41:44;;;;;;;25.30;3.85;;;17.80;64.00;;;;;;7392331;19;20331;-89
2022/11/02 12:44:28;;;;;;;30.35;3.95;;;18.00;64.50;;;;;;7383997;19;20023;-89
2022/11/02 12:47:06;;;;;;;23.80;3.83;;;18.00;63.80;;;;;;7388342;19;20017;-89
2022/11/02 12:49:43;;;;;;;28.13;3.63;;;18.20;63.60;;;;;;7413938;19;20032;-90
2022/11/02 12:52:28;;;;;;;27.85;3.35;;;18.40;63.30;;;;;;7394354;19;20038;-89
2022/11/02 12:57:38;;;;;;;28.20;3.00;;;18.10;62.70;;;;;;7380349;19;20018;-89
2022/11/02 13:00:10;;;;;;;26.52;4.32;;;18.20;63.50;;;;;;7393519;19;20010;-89
2022/11/02 13:02:51;;;;;;;31.38;3.65;;;18.30;63.20;;;;;;7391809;19;20121;-88
2022/11/02 13:05:24;;;;;;;21.17;2.95;;;18.30;62.20;;;;;;7391063;19;20018;-90
2022/11/02 13:08:03;;;;;;;27.58;3.55;;;18.40;61.90;;;;;;7412285;19;20014;-89
2022/11/02 13:10:37;;;;;;;27.55;3.40;;;18.60;60.60;;;;;;7390491;19;20023;-89
2022/11/02 13:13:06;;;;;;;20.05;2.90;;;18.70;61.00;;;;;;7389234;19;20015;-89
2022/11/02 13:15:39;;;;;;;23.10;2.78;;;18.80;60.50;;;;;;7391900;19;20011;-89
2022/11/02 13:18:15;;;;;;;23.63;3.53;;;18.80;60.40;;;;;;7404117;19;20006;-90
2022/11/02 13:20:47;;;;;;;32.17;3.38;;;18.90;60.80;;;;;;7410544;19;20002;-89
2022/11/02 13:23:27;;;;;;;19.55;3.60;;;18.90;60.70;;;;;;7410444;19;19988;-89
2022/11/02 13:26:00;;;;;;;32.07;3.20;;;18.70;60.80;;;;;;7412777;19;20006;-85